createdAt,value
2024-02-03T00:00:12.189Z,3.10
2024-02-03T00:02:40.108Z,3.08
2024-02-03T00:05:06.983Z,3.42
2024-02-03T00:07:33.670Z,3.25
2024-02-03T00:10:00.479Z,3.28
2024-02-03T00:12:30.564Z,3.35
2024-02-03T00:14:58.533Z,3.10
2024-02-03T00:17:28.533Z,3.00
2024-02-03T00:19:58.128Z,2.90
2024-02-03T00:22:24.929Z,2.88
2024-02-03T00:24:51.867Z,3.20
2024-02-03T00:27:19.422Z,3.13
2024-02-03T00:29:46.283Z,2.83
2024-02-03T00:32:13.255Z,2.83
2024-02-03T00:34:40.101Z,3.53
2024-02-03T00:37:06.936Z,2.70
2024-02-03T00:39:33.581Z,2.80
2024-02-03T00:42:00.351Z,2.90
2024-02-03T00:44:27.042Z,3.05
2024-02-03T00:46:53.775Z,3.38
2024-02-03T00:49:20.761Z,3.05
2024-02-03T00:51:47.826Z,3.35
2024-02-03T00:54:14.842Z,3.28
2024-02-03T00:56:41.520Z,3.38
2024-02-03T00:59:08.242Z,3.38
2024-02-03T01:01:35.191Z,3.10
2024-02-03T01:04:02.436Z,3.45
2024-02-03T01:06:29.259Z,4.15
2024-02-03T01:08:55.953Z,3.13
2024-02-03T01:11:22.753Z,3.38
2024-02-03T01:13:49.505Z,3.47
2024-02-03T01:16:17.292Z,4.10
2024-02-03T01:18:44.628Z,3.55
2024-02-03T01:21:23.921Z,3.45
2024-02-03T01:23:50.726Z,3.08
2024-02-03T01:26:17.563Z,3.60
2024-02-03T01:28:44.282Z,3.03
2024-02-03T01:31:12.510Z,3.00
2024-02-03T01:33:39.354Z,2.95
2024-02-03T01:36:06.733Z,2.97
2024-02-03T01:38:33.442Z,3.40
2024-02-03T01:41:00.176Z,3.50
2024-02-03T01:43:26.934Z,2.72
2024-02-03T01:45:54.543Z,3.38
2024-02-03T01:48:21.676Z,3.10
2024-02-03T01:50:51.085Z,3.22
2024-02-03T01:53:19.329Z,3.28
2024-02-03T01:55:46.666Z,3.40
2024-02-03T01:58:13.378Z,2.92
2024-02-03T02:00:40.713Z,3.50
2024-02-03T02:03:07.652Z,3.67
2024-02-03T02:05:34.753Z,3.30
2024-02-03T02:08:02.282Z,3.63
2024-02-03T02:10:31.480Z,3.45
2024-02-03T02:12:58.323Z,3.38
2024-02-03T02:15:25.359Z,3.72
2024-02-03T02:18:02.385Z,3.50
2024-02-03T02:20:29.258Z,3.80
2024-02-03T02:22:56.043Z,3.78
2024-02-03T02:25:23.092Z,3.65
2024-02-03T02:27:53.925Z,3.30
2024-02-03T02:30:21.696Z,4.15
2024-02-03T02:32:48.642Z,3.72
2024-02-03T02:35:15.432Z,3.95
2024-02-03T02:37:42.164Z,4.00
2024-02-03T02:40:10.248Z,3.90
2024-02-03T02:42:37.522Z,3.85
2024-02-03T02:45:05.247Z,3.70
2024-02-03T02:47:32.164Z,4.35
2024-02-03T02:49:59.024Z,4.38
2024-02-03T02:52:25.800Z,4.10
2024-02-03T02:54:52.782Z,3.75
2024-02-03T02:57:19.581Z,3.53
2024-02-03T02:59:46.371Z,4.00
2024-02-03T03:02:13.195Z,4.07
2024-02-03T03:04:39.975Z,3.88
2024-02-03T03:07:06.855Z,3.80
2024-02-03T03:09:33.642Z,4.72
2024-02-03T03:12:00.482Z,4.53
2024-02-03T03:14:27.163Z,4.50
2024-02-03T03:16:53.891Z,4.63
2024-02-03T03:19:20.677Z,4.45
2024-02-03T03:21:47.499Z,4.68
2024-02-03T03:24:14.496Z,4.63
2024-02-03T03:26:45.650Z,5.32
2024-02-03T03:29:16.836Z,4.38
2024-02-03T03:31:43.996Z,5.13
2024-02-03T03:34:10.980Z,4.60
2024-02-03T03:36:37.942Z,5.10
2024-02-03T03:39:05.297Z,5.20
2024-02-03T03:41:31.886Z,4.97
2024-02-03T03:43:58.592Z,5.40
2024-02-03T03:46:25.149Z,5.57
2024-02-03T03:48:51.927Z,4.40
2024-02-03T03:51:18.651Z,5.05
2024-02-03T03:53:45.286Z,4.43
2024-02-03T03:56:12.094Z,4.30
2024-02-03T03:58:39.000Z,4.40
2024-02-03T04:01:05.805Z,4.43
2024-02-03T04:03:32.553Z,4.50
2024-02-03T04:05:59.269Z,4.60
2024-02-03T04:08:26.342Z,5.00
2024-02-03T04:10:53.014Z,4.72
2024-02-03T04:13:20.036Z,4.40
2024-02-03T04:15:47.083Z,4.65
2024-02-03T04:18:13.904Z,4.57
2024-02-03T04:20:40.633Z,4.63
2024-02-03T04:23:10.085Z,4.68
2024-02-03T04:25:36.685Z,4.55
2024-02-03T04:28:03.608Z,5.57
2024-02-03T04:30:30.444Z,4.75
2024-02-03T04:32:57.301Z,4.95
2024-02-03T04:35:24.530Z,5.20
2024-02-03T04:37:51.147Z,4.30
2024-02-03T04:40:17.804Z,4.38
2024-02-03T04:42:44.589Z,4.30
2024-02-03T04:45:11.587Z,3.50
2024-02-03T04:47:38.519Z,3.88
2024-02-03T04:50:07.409Z,4.38
2024-02-03T04:52:34.117Z,3.22
2024-02-03T04:55:00.963Z,3.83
2024-02-03T04:57:27.594Z,2.90
2024-02-03T04:59:54.197Z,3.40
2024-02-03T05:02:20.823Z,3.40
2024-02-03T05:04:47.714Z,2.78
2024-02-03T05:07:14.551Z,2.90
2024-02-03T05:09:42.735Z,2.55
2024-02-03T05:12:10.156Z,2.58
2024-02-03T05:14:36.845Z,3.13
2024-02-03T05:17:03.600Z,2.60
2024-02-03T05:19:30.488Z,2.72
2024-02-03T05:21:57.388Z,2.38
2024-02-03T05:24:24.240Z,2.67
2024-02-03T05:26:50.940Z,1.83
2024-02-03T05:29:18.021Z,2.58
2024-02-03T05:31:44.664Z,2.05
2024-02-03T05:34:11.926Z,2.00
2024-02-03T05:36:38.905Z,1.85
2024-02-03T05:39:05.649Z,2.08
2024-02-03T05:41:32.271Z,2.35
2024-02-03T05:43:59.195Z,2.38
2024-02-03T05:46:25.845Z,2.30
2024-02-03T05:48:52.508Z,1.80
2024-02-03T05:51:20.703Z,2.03
2024-02-03T05:53:47.381Z,2.40
2024-02-03T05:56:14.050Z,1.90
2024-02-03T05:58:40.862Z,1.88
2024-02-03T06:01:10.096Z,2.10
2024-02-03T06:03:36.927Z,2.20
2024-02-03T06:06:19.606Z,2.35
2024-02-03T06:08:50.264Z,2.53
2024-02-03T06:11:17.007Z,2.03
2024-02-03T06:13:43.601Z,2.75
2024-02-03T06:16:10.184Z,2.65
2024-02-03T06:18:38.165Z,2.58
2024-02-03T06:21:05.143Z,2.65
2024-02-03T06:23:31.736Z,2.30
2024-02-03T06:25:58.320Z,2.40
2024-02-03T06:28:26.207Z,2.17
2024-02-03T06:30:52.850Z,3.20
2024-02-03T06:33:19.627Z,2.37
2024-02-03T06:35:46.412Z,2.63
2024-02-03T06:38:13.140Z,2.90
2024-02-03T06:40:39.798Z,2.90
2024-02-03T06:43:06.411Z,2.75
2024-02-03T06:45:34.326Z,2.90
2024-02-03T06:48:01.107Z,2.67
2024-02-03T06:50:27.748Z,3.15
2024-02-03T06:52:54.366Z,2.90
2024-02-03T06:55:21.008Z,2.70
2024-02-03T06:57:47.709Z,3.20
2024-02-03T07:00:14.770Z,3.22
2024-02-03T07:02:41.580Z,2.92
2024-02-03T07:05:08.855Z,2.92
2024-02-03T07:07:35.636Z,3.05
2024-02-03T07:10:02.905Z,2.85
2024-02-03T07:12:29.571Z,2.95
2024-02-03T07:14:56.213Z,3.10
2024-02-03T07:17:23.115Z,8.27
2024-02-03T07:19:49.956Z,8.95
2024-02-03T07:22:16.667Z,7.95
2024-02-03T07:24:43.465Z,9.30
2024-02-03T07:27:11.036Z,9.45
2024-02-03T07:29:40.435Z,4.13
2024-02-03T07:32:07.749Z,3.92
2024-02-03T07:34:34.959Z,3.30
2024-02-03T07:37:03.127Z,3.33
2024-02-03T07:39:30.073Z,3.58
2024-02-03T07:41:56.768Z,4.40
2024-02-03T07:44:23.433Z,3.80
2024-02-03T07:46:50.064Z,3.30
2024-02-03T07:49:17.121Z,3.20
2024-02-03T07:51:44.116Z,3.58
2024-02-03T07:54:10.904Z,24.35
2024-02-03T07:56:37.558Z,4.60
2024-02-03T07:59:04.164Z,4.78
2024-02-03T08:01:30.925Z,4.95
2024-02-03T08:03:57.753Z,6.05
2024-02-03T08:06:24.648Z,4.80
2024-02-03T08:08:51.532Z,4.22
2024-02-03T08:11:18.138Z,4.50
2024-02-03T08:13:47.751Z,3.80
2024-02-03T08:16:14.334Z,4.38
2024-02-03T08:18:42.310Z,4.78
2024-02-03T08:21:09.097Z,4.70
2024-02-03T08:23:36.394Z,4.85
2024-02-03T08:26:03.033Z,4.45
2024-02-03T08:28:30.146Z,5.20
2024-02-03T08:30:56.925Z,4.20
2024-02-03T08:33:24.247Z,4.65
2024-02-03T08:35:51.114Z,4.80
2024-02-03T08:38:17.965Z,5.13
2024-02-03T08:40:47.869Z,4.18
2024-02-03T08:43:14.674Z,4.68
2024-02-03T08:45:41.378Z,5.78
2024-02-03T08:48:08.147Z,6.13
2024-02-03T08:50:35.372Z,5.18
2024-02-03T08:53:02.439Z,4.47
2024-02-03T08:55:29.824Z,6.35
2024-02-03T08:57:56.981Z,5.78
2024-02-03T09:00:24.188Z,5.63
2024-02-03T09:02:50.912Z,6.13
2024-02-03T09:05:17.780Z,4.93
2024-02-03T09:07:44.655Z,5.72
2024-02-03T09:10:11.535Z,4.80
2024-02-03T09:12:38.338Z,4.63
2024-02-03T09:15:05.430Z,5.22
2024-02-03T09:17:32.278Z,4.57
2024-02-03T09:19:59.076Z,7.47
2024-02-03T09:22:25.780Z,4.78
2024-02-03T09:24:52.879Z,4.65
2024-02-03T09:27:19.596Z,4.13
2024-02-03T09:29:46.289Z,3.67
2024-02-03T09:32:12.936Z,2.60
2024-02-03T09:34:39.691Z,2.22
2024-02-03T09:39:38.467Z,3.15
2024-02-03T09:42:06.220Z,2.38
2024-02-03T09:44:33.160Z,2.70
2024-02-03T09:46:59.918Z,2.60
2024-02-03T09:49:27.047Z,2.53
2024-02-03T09:51:54.174Z,2.83
2024-02-03T09:54:22.123Z,2.53
2024-02-03T09:56:48.814Z,2.70
2024-02-03T09:59:16.095Z,2.90
2024-02-03T10:01:47.030Z,2.80
2024-02-03T10:04:14.419Z,2.45
2024-02-03T10:06:46.147Z,2.28
2024-02-03T10:09:25.271Z,2.63
2024-02-03T10:11:52.960Z,2.83
2024-02-03T10:14:19.883Z,2.93
2024-02-03T10:16:48.006Z,2.50
2024-02-03T10:19:14.863Z,4.82
2024-02-03T10:21:41.764Z,3.53
2024-02-03T10:24:09.127Z,2.95
2024-02-03T10:26:36.677Z,3.93
2024-02-03T10:29:03.704Z,3.03
2024-02-03T10:31:30.629Z,2.80
2024-02-03T10:34:04.468Z,3.00
2024-02-03T10:36:31.200Z,2.30
2024-02-03T10:38:57.882Z,2.50
2024-02-03T10:41:31.418Z,2.00
2024-02-03T10:44:02.445Z,2.10
2024-02-03T10:46:31.914Z,2.30
2024-02-03T10:49:02.363Z,2.13
2024-02-03T10:51:32.307Z,2.00
2024-02-03T10:54:09.783Z,1.92
2024-02-03T10:56:38.799Z,2.10
2024-02-03T10:59:07.413Z,2.42
2024-02-03T11:01:35.939Z,2.47
2024-02-03T11:04:05.828Z,2.17
2024-02-03T11:06:34.271Z,2.10
2024-02-03T11:09:22.296Z,2.55
2024-02-03T11:11:54.445Z,1.95
2024-02-03T11:14:23.743Z,2.10
2024-02-03T11:16:55.005Z,2.22
2024-02-03T11:19:30.318Z,2.10
2024-02-03T11:21:58.732Z,1.92
2024-02-03T11:24:26.008Z,1.98
2024-02-03T11:26:59.984Z,2.45
2024-02-03T11:29:27.228Z,2.03
2024-02-03T11:32:00.164Z,1.98
2024-02-03T11:34:29.247Z,2.38
2024-02-03T11:36:56.436Z,1.85
2024-02-03T11:39:33.489Z,2.55
2024-02-03T11:42:00.309Z,3.10
2024-02-03T11:44:37.682Z,3.00
2024-02-03T11:47:08.778Z,2.40
2024-02-03T11:49:35.852Z,2.10
2024-02-03T11:52:03.610Z,1.98
2024-02-03T11:54:30.335Z,2.30
2024-02-03T11:56:57.091Z,2.47
2024-02-03T11:59:30.630Z,2.20
2024-02-03T12:01:58.051Z,1.90
2024-02-03T12:04:26.102Z,2.53
2024-02-03T12:06:55.433Z,2.23
2024-02-03T12:09:22.532Z,1.80
2024-02-03T12:11:53.598Z,2.20
2024-02-03T12:14:21.337Z,1.98
2024-02-03T12:16:49.187Z,1.98
2024-02-03T12:19:16.503Z,2.20
2024-02-03T12:21:44.997Z,1.20
2024-02-03T12:24:12.152Z,1.20
2024-02-03T12:26:40.672Z,1.27
2024-02-03T12:29:07.536Z,1.08
2024-02-03T12:31:34.209Z,1.10
2024-02-03T12:34:01.078Z,1.33
2024-02-03T12:36:29.877Z,0.90
2024-02-03T12:38:58.896Z,1.15
2024-02-03T12:41:26.665Z,1.00
2024-02-03T12:43:53.423Z,1.00
2024-02-03T12:46:21.402Z,1.05
2024-02-03T12:48:48.616Z,0.95
2024-02-03T12:51:15.909Z,1.00
2024-02-03T12:53:42.885Z,1.08
2024-02-03T12:56:09.646Z,1.20
2024-02-03T12:58:36.421Z,1.30
2024-02-03T13:01:04.718Z,0.88
2024-02-03T13:03:31.650Z,0.90
2024-02-03T13:05:58.473Z,1.50
2024-02-03T13:08:25.100Z,0.70
2024-02-03T13:10:51.777Z,1.10
2024-02-03T13:13:18.496Z,1.10
2024-02-03T13:15:45.214Z,1.23
2024-02-03T13:18:11.842Z,1.25
2024-02-03T13:20:38.486Z,1.35
2024-02-03T13:23:05.071Z,0.80
2024-02-03T13:25:31.875Z,0.90
2024-02-03T13:27:58.744Z,0.88
2024-02-03T13:30:25.492Z,1.08
2024-02-03T13:32:52.232Z,0.80
2024-02-03T13:35:20.648Z,1.33
2024-02-03T13:37:47.710Z,1.40
2024-02-03T13:40:14.399Z,2.00
2024-02-03T13:42:55.593Z,2.35
2024-02-03T13:45:22.342Z,1.27
2024-02-03T13:47:51.319Z,1.23
2024-02-03T13:50:20.071Z,1.05
2024-02-03T13:52:47.477Z,1.50
2024-02-03T13:55:14.506Z,1.40
2024-02-03T13:57:41.446Z,1.03
2024-02-03T14:00:09.198Z,1.40
2024-02-03T14:02:38.563Z,1.35
2024-02-03T14:05:06.177Z,1.17
2024-02-03T14:07:32.929Z,1.17
2024-02-03T14:09:59.682Z,1.60
2024-02-03T14:12:26.474Z,1.17
2024-02-03T14:14:53.197Z,1.30
2024-02-03T14:17:20.744Z,1.17
2024-02-03T14:19:47.674Z,0.82
2024-02-03T14:22:15.407Z,1.50
2024-02-03T14:24:42.937Z,1.50
2024-02-03T14:27:10.691Z,1.20
2024-02-03T14:29:37.531Z,1.20
2024-02-03T14:32:05.898Z,1.30
2024-02-03T14:34:33.087Z,1.07
2024-02-03T14:37:00.549Z,1.08
2024-02-03T14:39:27.688Z,0.98
2024-02-03T14:41:55.363Z,1.30
2024-02-03T14:44:22.631Z,1.58
2024-02-03T14:46:49.346Z,1.13
2024-02-03T14:49:17.393Z,1.52
2024-02-03T14:51:44.907Z,1.55
2024-02-03T14:54:12.785Z,1.70
2024-02-03T14:56:39.411Z,1.83
2024-02-03T14:59:06.035Z,1.70
2024-02-03T15:01:32.940Z,2.05
2024-02-03T15:03:59.766Z,1.70
2024-02-03T15:06:26.507Z,1.33
2024-02-03T15:08:53.464Z,1.75
2024-02-03T15:11:20.124Z,1.38
2024-02-03T15:13:46.711Z,1.60
2024-02-03T15:16:13.505Z,2.00
2024-02-03T15:18:40.274Z,1.83
2024-02-03T15:21:07.251Z,1.98
2024-02-03T15:23:33.938Z,1.38
2024-02-03T15:26:00.568Z,1.83
2024-02-03T15:28:29.713Z,1.52
2024-02-03T15:30:58.523Z,1.70
2024-02-03T15:33:25.426Z,1.52
2024-02-03T15:35:52.156Z,1.13
2024-02-03T15:38:18.809Z,15.35
2024-02-03T15:40:45.518Z,1.98
2024-02-03T15:43:12.212Z,1.27
2024-02-03T15:45:38.939Z,1.17
2024-02-03T15:48:06.387Z,1.63
2024-02-03T15:50:34.342Z,1.27
2024-02-03T15:53:01.020Z,1.10
2024-02-03T15:55:29.875Z,1.05
2024-02-03T15:57:57.663Z,1.10
2024-02-03T16:00:24.504Z,1.30
2024-02-03T16:02:51.336Z,1.33
2024-02-03T16:05:18.037Z,1.02
2024-02-03T16:07:44.770Z,1.63
2024-02-03T16:10:14.292Z,3.25
2024-02-03T16:12:42.138Z,2.78
2024-02-03T16:15:09.893Z,1.75
2024-02-03T16:17:36.762Z,1.33
2024-02-03T16:20:06.583Z,1.70
2024-02-03T16:22:33.927Z,0.95
2024-02-03T16:25:01.147Z,0.70
2024-02-03T16:27:28.585Z,2.10
2024-02-03T16:29:55.478Z,1.15
2024-02-03T16:32:23.325Z,0.90
2024-02-03T16:34:50.010Z,1.08
2024-02-03T16:37:18.813Z,1.70
2024-02-03T16:39:45.630Z,1.10
2024-02-03T16:42:12.487Z,1.60
2024-02-03T16:44:39.304Z,1.30
2024-02-03T16:47:06.077Z,1.40
2024-02-03T16:49:33.012Z,2.53
2024-02-03T16:51:59.906Z,1.38
2024-02-03T16:54:26.665Z,1.33
2024-02-03T16:56:53.301Z,1.25
2024-02-03T16:59:19.885Z,1.45
2024-02-03T17:01:47.264Z,1.05
2024-02-03T17:04:20.206Z,0.90
2024-02-03T17:06:49.492Z,1.58
2024-02-03T17:09:17.959Z,1.92
2024-02-03T17:11:44.749Z,2.40
2024-02-03T17:14:11.492Z,1.90
2024-02-03T17:16:38.225Z,2.40
2024-02-03T17:19:07.473Z,1.70
2024-02-03T17:21:34.412Z,1.85
2024-02-03T17:24:02.196Z,1.48
2024-02-03T17:26:29.243Z,1.77
2024-02-03T17:28:56.095Z,1.50
2024-02-03T17:31:22.825Z,1.17
2024-02-03T17:33:49.818Z,2.25
2024-02-03T17:36:16.658Z,2.20
2024-02-03T17:38:43.290Z,2.10
2024-02-03T17:41:10.164Z,1.60
2024-02-03T17:43:36.768Z,2.45
2024-02-03T17:46:03.749Z,3.85
2024-02-03T17:48:30.578Z,5.38
2024-02-03T17:50:57.263Z,3.17
2024-02-03T17:53:23.854Z,2.35
2024-02-03T17:55:50.599Z,1.45
2024-02-03T17:58:17.273Z,1.75
2024-02-03T18:00:44.061Z,2.17
2024-02-03T18:03:11.007Z,2.40
2024-02-03T18:05:37.657Z,2.10
2024-02-03T18:08:04.736Z,2.40
2024-02-03T18:10:31.940Z,2.50
2024-02-03T18:12:58.581Z,2.40
2024-02-03T18:15:26.278Z,2.50
2024-02-03T18:17:53.319Z,2.40
2024-02-03T18:20:20.439Z,2.80
2024-02-03T18:22:47.943Z,3.10
2024-02-03T18:25:14.674Z,4.13
2024-02-03T18:27:41.411Z,4.38
2024-02-03T18:30:08.694Z,4.03
2024-02-03T18:32:35.953Z,4.00
2024-02-03T18:35:04.305Z,4.03
2024-02-03T18:37:30.885Z,4.20
2024-02-03T18:39:57.905Z,5.28
2024-02-03T18:42:25.579Z,3.60
2024-02-03T18:44:52.611Z,4.78
2024-02-03T18:47:19.304Z,5.00
2024-02-03T18:49:46.416Z,4.00
2024-02-03T18:52:13.169Z,3.72
2024-02-03T18:54:39.862Z,3.28
2024-02-03T18:57:06.518Z,2.67
2024-02-03T18:59:33.119Z,2.45
2024-02-03T19:01:59.703Z,1.95
2024-02-03T19:04:26.453Z,2.10
2024-02-03T19:06:53.610Z,1.70
2024-02-03T19:09:24.403Z,2.58
2024-02-03T19:11:51.405Z,3.50
2024-02-03T19:14:21.181Z,4.68
2024-02-03T19:16:48.023Z,5.13
2024-02-03T19:19:14.726Z,4.20
2024-02-03T19:21:42.241Z,4.22
2024-02-03T19:24:09.020Z,2.70
2024-02-03T19:26:35.666Z,3.25
2024-02-03T19:29:02.379Z,1.60
2024-02-03T19:31:29.052Z,2.40
2024-02-03T19:33:55.731Z,2.03
2024-02-03T19:36:22.482Z,1.85
2024-02-03T19:38:49.140Z,1.00
2024-02-03T19:41:18.365Z,1.10
2024-02-03T19:43:45.428Z,1.10
2024-02-03T19:46:12.089Z,1.00
2024-02-03T19:48:38.868Z,0.80
2024-02-03T19:51:07.179Z,1.40
2024-02-03T19:53:34.201Z,1.50
2024-02-03T19:56:00.832Z,0.98
2024-02-03T19:58:27.565Z,1.30
2024-02-03T20:00:54.658Z,1.35
2024-02-03T20:03:22.934Z,1.15
2024-02-03T20:05:49.617Z,1.08
2024-02-03T20:08:16.545Z,1.10
2024-02-03T20:10:43.390Z,0.70
2024-02-03T20:13:10.338Z,1.00
2024-02-03T20:15:37.073Z,1.00
2024-02-03T20:18:04.429Z,1.43
2024-02-03T20:20:31.853Z,1.13
2024-02-03T20:22:59.011Z,0.80
2024-02-03T20:25:25.989Z,1.10
2024-02-03T20:27:53.147Z,0.68
2024-02-03T20:30:19.999Z,0.93
2024-02-03T20:32:46.713Z,0.95
2024-02-03T20:35:14.457Z,1.05
2024-02-03T20:37:41.407Z,1.10
2024-02-03T20:40:09.088Z,1.23
2024-02-03T20:42:35.748Z,0.98
2024-02-03T20:45:02.375Z,1.10
2024-02-03T20:47:29.400Z,1.08
2024-02-03T20:49:58.676Z,0.90
2024-02-03T20:52:29.297Z,1.00
2024-02-03T20:54:56.161Z,0.98
2024-02-03T20:57:22.930Z,0.70
2024-02-03T20:59:51.351Z,1.02
2024-02-03T21:02:18.245Z,2.10
2024-02-03T21:04:45.351Z,2.05
2024-02-03T21:07:16.807Z,1.48
2024-02-03T21:09:44.262Z,1.17
2024-02-03T21:12:10.916Z,1.30
2024-02-03T21:14:37.729Z,0.70
2024-02-03T21:17:04.665Z,1.48
2024-02-03T21:19:31.705Z,0.83
2024-02-03T21:21:58.470Z,0.65
2024-02-03T21:24:25.166Z,0.82
2024-02-03T21:26:56.486Z,1.10
2024-02-03T21:29:23.191Z,0.90
2024-02-03T21:31:49.814Z,0.52
2024-02-03T21:34:16.701Z,0.77
2024-02-03T21:36:43.540Z,0.63
2024-02-03T21:39:11.831Z,0.73
2024-02-03T21:41:40.038Z,1.40
2024-02-03T21:44:06.979Z,0.90
2024-02-03T21:46:34.110Z,1.02
2024-02-03T21:49:01.009Z,1.88
2024-02-03T21:51:28.458Z,1.67
2024-02-03T21:53:55.078Z,1.02
2024-02-03T21:56:22.186Z,1.27
2024-02-03T21:58:49.124Z,2.10
2024-02-03T22:01:15.900Z,1.48
2024-02-03T22:03:42.634Z,1.52
2024-02-03T22:06:09.660Z,1.33
2024-02-03T22:08:36.654Z,1.50
2024-02-03T22:11:03.471Z,1.05
2024-02-03T22:13:30.098Z,1.30
2024-02-03T22:15:56.779Z,1.33
2024-02-03T22:18:23.970Z,1.10
2024-02-03T22:20:50.693Z,1.70
2024-02-03T22:23:17.322Z,1.60
2024-02-03T22:25:43.907Z,1.33
2024-02-03T22:28:10.880Z,1.52
2024-02-03T22:30:37.679Z,1.80
2024-02-03T22:33:05.337Z,1.40
2024-02-03T22:35:33.191Z,1.50
2024-02-03T22:37:59.977Z,1.50
2024-02-03T22:40:26.747Z,1.50
2024-02-03T22:42:54.062Z,1.48
2024-02-03T22:45:21.348Z,1.40
2024-02-03T22:47:51.365Z,1.25
2024-02-03T22:50:18.496Z,1.50
2024-02-03T22:52:45.432Z,1.60
2024-02-03T22:55:12.163Z,1.45
2024-02-03T22:57:39.214Z,1.30
2024-02-03T23:00:29.936Z,1.50
2024-02-03T23:02:56.957Z,1.02
2024-02-03T23:05:23.733Z,1.35
2024-02-03T23:07:50.531Z,1.25
2024-02-03T23:10:17.118Z,1.10
2024-02-03T23:12:43.851Z,1.17
2024-02-03T23:15:11.123Z,1.00
2024-02-03T23:17:39.386Z,1.10
2024-02-03T23:20:06.990Z,0.95
2024-02-03T23:22:33.600Z,0.90
2024-02-03T23:25:03.242Z,1.00
2024-02-03T23:27:29.914Z,1.30
2024-02-03T23:29:56.573Z,1.23
2024-02-03T23:32:23.247Z,1.30
2024-02-03T23:34:50.116Z,1.00
2024-02-03T23:37:16.980Z,1.00
2024-02-03T23:39:44.355Z,1.30
2024-02-03T23:42:10.933Z,1.17
2024-02-03T23:44:37.680Z,1.40
2024-02-03T23:47:05.370Z,1.30
2024-02-03T23:49:32.062Z,1.08
2024-02-03T23:51:58.826Z,1.10
2024-02-03T23:54:25.432Z,1.10
2024-02-03T23:56:52.062Z,1.42
2024-02-03T23:59:18.756Z,1.03
